Terminal Aerodrome Forecast
Issued by NWS Wichita, KS

Home | Current Version | Previous Version | Graphics & Text | Print | Product List | Glossary On
Versions: 1 2 3 4 5 6 7 8 9 10 11 12 13 14 15 16 17 18 19 20 21 22 23 24
000
FTUS43 KICT 292245 AAC
TAFICT
TAF AMD
KICT 292245Z 2923/3018 23017G25KT P6SM SCT050
     FM292315 16010KT P6SM SCT040 BKN150
     FM300900 17007KT P6SM SCT015=

USA.gov is the U.S. government's official web portal to all federal, state and local government web resources and services.